sensor_id;sensor_type;location;lat;lon;timestamp;temperature;humidity
29007;DHT22;16104;48.642;9.008;2023-06-22T01:02:35;23.90;58.10
29007;DHT22;16104;48.642;9.008;2023-06-22T01:07:38;23.90;58.00
29007;DHT22;16104;48.642;9.008;2023-06-22T01:12:40;23.80;58.40
29007;DHT22;16104;48.642;9.008;2023-06-22T02:03:38;23.20;60.10
29007;DHT22;16104;48.642;9.008;2023-06-22T02:08:41;23.20;61.10
29007;DHT22;16104;48.642;9.008;2023-06-22T02:13:37;23.10;60.60
29007;DHT22;16104;48.642;9.008;2023-06-22T03:04:26;23.00;60.70
29007;DHT22;16104;48.642;9.008;2023-06-22T03:09:21;22.90;60.90
29007;DHT22;16104;48.642;9.008;2023-06-22T03:14:17;22.90;60.80
29007;DHT22;16104;48.642;9.008;2023-06-22T03:19:13;22.90;61.00
29007;DHT22;16104;48.642;9.008;2023-06-22T03:24:09;22.90;60.90
29007;DHT22;16104;48.642;9.008;2023-06-22T03:29:04;22.80;60.90
29007;DHT22;16104;48.642;9.008;2023-06-22T03:34:00;22.80;61.00
29007;DHT22;16104;48.642;9.008;2023-06-22T03:38:55;22.80;60.70
29007;DHT22;16104;48.642;9.008;2023-06-22T03:43:51;22.80;61.20
29007;DHT22;16104;48.642;9.008;2023-06-22T03:48:46;22.70;60.90
29007;DHT22;16104;48.642;9.008;2023-06-22T03:53:42;22.70;61.00
29007;DHT22;16104;48.642;9.008;2023-06-22T03:58:38;22.70;61.20
29007;DHT22;16104;48.642;9.008;2023-06-22T04:03:38;22.70;61.20
29007;DHT22;16104;48.642;9.008;2023-06-22T04:08:34;22.60;61.30
29007;DHT22;16104;48.642;9.008;2023-06-22T04:13:30;22.60;61.60
29007;DHT22;16104;48.642;9.008;2023-06-22T04:18:25;22.60;62.00
29007;DHT22;16104;48.642;9.008;2023-06-22T04:23:21;22.60;61.60
29007;DHT22;16104;48.642;9.008;2023-06-22T04:28:17;22.60;62.30
29007;DHT22;16104;48.642;9.008;2023-06-22T04:33:15;22.60;62.30
29007;DHT22;16104;48.642;9.008;2023-06-22T04:38:12;22.70;62.40
29007;DHT22;16104;48.642;9.008;2023-06-22T04:43:08;22.70;62.60
29007;DHT22;16104;48.642;9.008;2023-06-22T04:48:06;22.70;62.60
29007;DHT22;16104;48.642;9.008;2023-06-22T04:53:01;22.80;62.80
29007;DHT22;16104;48.642;9.008;2023-06-22T04:58:00;22.80;63.00
29007;DHT22;16104;48.642;9.008;2023-06-22T05:02:59;22.80;62.90
29007;DHT22;16104;48.642;9.008;2023-06-22T05:07:57;22.80;62.00
29007;DHT22;16104;48.642;9.008;2023-06-22T05:12:55;23.00;62.70
29007;DHT22;16104;48.642;9.008;2023-06-22T05:17:51;23.00;61.90
29007;DHT22;16104;48.642;9.008;2023-06-22T05:22:46;23.10;62.30
29007;DHT22;16104;48.642;9.008;2023-06-22T05:27:42;23.20;62.30
29007;DHT22;16104;48.642;9.008;2023-06-22T05:32:39;23.30;62.50
29007;DHT22;16104;48.642;9.008;2023-06-22T05:37:34;23.40;62.50
29007;DHT22;16104;48.642;9.008;2023-06-22T05:42:30;23.60;62.20
29007;DHT22;16104;48.642;9.008;2023-06-22T05:47:25;23.70;62.10
29007;DHT22;16104;48.642;9.008;2023-06-22T05:52:21;23.90;62.00
29007;DHT22;16104;48.642;9.008;2023-06-22T05:57:16;24.10;61.50
29007;DHT22;16104;48.642;9.008;2023-06-22T06:02:12;24.20;61.00
29007;DHT22;16104;48.642;9.008;2023-06-22T06:07:07;24.30;60.50
29007;DHT22;16104;48.642;9.008;2023-06-22T06:12:03;24.40;60.30
29007;DHT22;16104;48.642;9.008;2023-06-22T06:16:59;24.50;60.10
29007;DHT22;16104;48.642;9.008;2023-06-22T06:21:54;24.60;60.00
29007;DHT22;16104;48.642;9.008;2023-06-22T06:26:50;24.80;59.50
29007;DHT22;16104;48.642;9.008;2023-06-22T06:31:45;24.90;59.30
29007;DHT22;16104;48.642;9.008;2023-06-22T06:36:41;25.10;58.80
29007;DHT22;16104;48.642;9.008;2023-06-22T06:41:36;25.20;58.80
29007;DHT22;16104;48.642;9.008;2023-06-22T06:46:32;25.40;58.60
29007;DHT22;16104;48.642;9.008;2023-06-22T06:51:27;25.50;58.30
29007;DHT22;16104;48.642;9.008;2023-06-22T06:56:23;25.70;58.00
29007;DHT22;16104;48.642;9.008;2023-06-22T07:01:18;25.80;57.70
29007;DHT22;16104;48.642;9.008;2023-06-22T07:06:15;26.00;57.50
29007;DHT22;16104;48.642;9.008;2023-06-22T07:11:11;26.20;57.50
29007;DHT22;16104;48.642;9.008;2023-06-22T07:16:07;26.30;57.00
29007;DHT22;16104;48.642;9.008;2023-06-22T07:21:02;26.50;57.00
29007;DHT22;16104;48.642;9.008;2023-06-22T07:26:01;26.70;56.90
29007;DHT22;16104;48.642;9.008;2023-06-22T07:30:57;26.90;56.90
29007;DHT22;16104;48.642;9.008;2023-06-22T07:35:52;27.10;56.30
29007;DHT22;16104;48.642;9.008;2023-06-22T07:40:48;27.20;55.60
29007;DHT22;16104;48.642;9.008;2023-06-22T07:45:48;27.40;55.60
29007;DHT22;16104;48.642;9.008;2023-06-22T07:50:47;27.60;55.00
29007;DHT22;16104;48.642;9.008;2023-06-22T07:55:43;27.80;55.10
29007;DHT22;16104;48.642;9.008;2023-06-22T08:00:38;28.00;54.40
29007;DHT22;16104;48.642;9.008;2023-06-22T08:05:34;28.20;54.30
29007;DHT22;16104;48.642;9.008;2023-06-22T08:10:29;28.40;54.00
29007;DHT22;16104;48.642;9.008;2023-06-22T08:15:26;28.60;53.70
29007;DHT22;16104;48.642;9.008;2023-06-22T08:20:22;28.80;53.10
29007;DHT22;16104;48.642;9.008;2023-06-22T08:25:17;29.00;53.00
29007;DHT22;16104;48.642;9.008;2023-06-22T08:30:13;29.20;52.60
29007;DHT22;16104;48.642;9.008;2023-06-22T08:35:08;29.30;52.00
29007;DHT22;16104;48.642;9.008;2023-06-22T08:40:06;29.40;52.10
29007;DHT22;16104;48.642;9.008;2023-06-22T08:45:05;29.50;51.20
29007;DHT22;16104;48.642;9.008;2023-06-22T08:50:01;29.60;51.00
29007;DHT22;16104;48.642;9.008;2023-06-22T08:55:00;29.70;50.90
29007;DHT22;16104;48.642;9.008;2023-06-22T08:59:56;29.70;50.20
29007;DHT22;16104;48.642;9.008;2023-06-22T09:04:53;29.80;50.60
29007;DHT22;16104;48.642;9.008;2023-06-22T09:09:51;29.90;51.10
29007;DHT22;16104;48.642;9.008;2023-06-22T09:14:47;30.10;51.50
29007;DHT22;16104;48.642;9.008;2023-06-22T09:19:42;30.30;50.90
29007;DHT22;16104;48.642;9.008;2023-06-22T09:24:38;30.60;50.40
29007;DHT22;16104;48.642;9.008;2023-06-22T09:29:33;30.80;50.20
29007;DHT22;16104;48.642;9.008;2023-06-22T09:34:30;31.00;49.40
29007;DHT22;16104;48.642;9.008;2023-06-22T09:39:26;31.20;49.00
29007;DHT22;16104;48.642;9.008;2023-06-22T09:44:22;31.40;49.10
29007;DHT22;16104;48.642;9.008;2023-06-22T09:49:17;31.70;49.00
29007;DHT22;16104;48.642;9.008;2023-06-22T09:54:13;31.90;47.80
29007;DHT22;16104;48.642;9.008;2023-06-22T09:59:08;32.20;47.90
29007;DHT22;16104;48.642;9.008;2023-06-22T10:04:04;32.40;47.50
29007;DHT22;16104;48.642;9.008;2023-06-22T10:08:59;32.60;46.60
29007;DHT22;16104;48.642;9.008;2023-06-22T10:13:55;32.70;46.60
29007;DHT22;16104;48.642;9.008;2023-06-22T10:18:50;32.90;45.90
29007;DHT22;16104;48.642;9.008;2023-06-22T10:23:46;33.00;46.10
29007;DHT22;16104;48.642;9.008;2023-06-22T10:28:41;33.20;45.70
29007;DHT22;16104;48.642;9.008;2023-06-22T10:33:37;33.40;45.80
29007;DHT22;16104;48.642;9.008;2023-06-22T10:38:32;33.60;45.40
29007;DHT22;16104;48.642;9.008;2023-06-22T10:43:28;33.90;44.70
29007;DHT22;16104;48.642;9.008;2023-06-22T10:48:23;34.10;44.30
29007;DHT22;16104;48.642;9.008;2023-06-22T10:53:19;34.20;43.40
29007;DHT22;16104;48.642;9.008;2023-06-22T10:58:14;34.40;43.70
29007;DHT22;16104;48.642;9.008;2023-06-22T11:03:10;34.50;43.10
29007;DHT22;16104;48.642;9.008;2023-06-22T11:08:05;34.50;42.70
29007;DHT22;16104;48.642;9.008;2023-06-22T11:13:01;34.50;42.90
29007;DHT22;16104;48.642;9.008;2023-06-22T11:17:58;34.50;42.70
29007;DHT22;16104;48.642;9.008;2023-06-22T11:22:53;34.60;43.10
29007;DHT22;16104;48.642;9.008;2023-06-22T11:27:49;34.60;42.80
29007;DHT22;16104;48.642;9.008;2023-06-22T11:32:45;34.60;42.40
29007;DHT22;16104;48.642;9.008;2023-06-22T11:37:40;34.80;43.30
29007;DHT22;16104;48.642;9.008;2023-06-22T11:42:36;34.90;42.90
29007;DHT22;16104;48.642;9.008;2023-06-22T11:47:31;35.10;42.50
29007;DHT22;16104;48.642;9.008;2023-06-22T11:52:27;35.10;42.10
29007;DHT22;16104;48.642;9.008;2023-06-22T11:57:22;35.10;42.20
29007;DHT22;16104;48.642;9.008;2023-06-22T12:02:18;35.00;41.70
29007;DHT22;16104;48.642;9.008;2023-06-22T12:07:13;35.00;42.00
29007;DHT22;16104;48.642;9.008;2023-06-22T12:12:09;35.00;42.10
29007;DHT22;16104;48.642;9.008;2023-06-22T12:17:05;34.90;42.70
29007;DHT22;16104;48.642;9.008;2023-06-22T12:22:00;34.80;42.40
29007;DHT22;16104;48.642;9.008;2023-06-22T12:26:56;34.80;42.40
29007;DHT22;16104;48.642;9.008;2023-06-22T12:31:51;34.80;42.30
29007;DHT22;16104;48.642;9.008;2023-06-22T12:36:47;34.60;42.30
29007;DHT22;16104;48.642;9.008;2023-06-22T12:41:43;34.60;42.00
29007;DHT22;16104;48.642;9.008;2023-06-22T12:46:39;34.40;42.10
29007;DHT22;16104;48.642;9.008;2023-06-22T12:51:40;34.30;42.20
29007;DHT22;16104;48.642;9.008;2023-06-22T12:56:37;34.20;42.00
29007;DHT22;16104;48.642;9.008;2023-06-22T13:01:32;34.00;42.50
29007;DHT22;16104;48.642;9.008;2023-06-22T13:06:28;33.80;42.40
29007;DHT22;16104;48.642;9.008;2023-06-22T13:11:23;33.80;42.50
29007;DHT22;16104;48.642;9.008;2023-06-22T13:16:19;33.70;42.50
29007;DHT22;16104;48.642;9.008;2023-06-22T13:21:14;33.60;42.10
29007;DHT22;16104;48.642;9.008;2023-06-22T13:26:10;33.60;42.20
29007;DHT22;16104;48.642;9.008;2023-06-22T13:31:05;33.60;42.70
29007;DHT22;16104;48.642;9.008;2023-06-22T13:36:01;33.60;42.60
29007;DHT22;16104;48.642;9.008;2023-06-22T13:40:58;33.60;42.70
29007;DHT22;16104;48.642;9.008;2023-06-22T13:45:54;33.60;42.40
29007;DHT22;16104;48.642;9.008;2023-06-22T13:50:50;33.60;43.50
29007;DHT22;16104;48.642;9.008;2023-06-22T13:55:45;33.50;42.70
29007;DHT22;16104;48.642;9.008;2023-06-22T14:00:42;33.60;43.10
29007;DHT22;16104;48.642;9.008;2023-06-22T14:05:38;33.70;43.70
29007;DHT22;16104;48.642;9.008;2023-06-22T14:10:33;34.00;44.10
29007;DHT22;16104;48.642;9.008;2023-06-22T14:15:29;34.30;42.70
29007;DHT22;16104;48.642;9.008;2023-06-22T14:20:25;34.50;41.70
29007;DHT22;16104;48.642;9.008;2023-06-22T14:25:21;34.60;40.80
29007;DHT22;16104;48.642;9.008;2023-06-22T14:30:16;34.70;38.90
29007;DHT22;16104;48.642;9.008;2023-06-22T14:35:12;34.80;39.20
29007;DHT22;16104;48.642;9.008;2023-06-22T14:40:08;35.00;36.90
29007;DHT22;16104;48.642;9.008;2023-06-22T14:45:04;35.20;34.90
29007;DHT22;16104;48.642;9.008;2023-06-22T14:49:59;35.40;33.70
29007;DHT22;16104;48.642;9.008;2023-06-22T14:54:58;35.50;32.80
29007;DHT22;16104;48.642;9.008;2023-06-22T14:59:54;35.50;31.90
29007;DHT22;16104;48.642;9.008;2023-06-22T15:04:50;35.50;32.20
29007;DHT22;16104;48.642;9.008;2023-06-22T15:09:48;35.40;31.80
29007;DHT22;16104;48.642;9.008;2023-06-22T15:14:43;35.30;31.80
29007;DHT22;16104;48.642;9.008;2023-06-22T15:19:39;35.20;31.70
29007;DHT22;16104;48.642;9.008;2023-06-22T15:24:35;35.10;31.10
29007;DHT22;16104;48.642;9.008;2023-06-22T15:29:30;35.10;31.00
29007;DHT22;16104;48.642;9.008;2023-06-22T15:34:29;34.90;31.10
29007;DHT22;16104;48.642;9.008;2023-06-22T15:39:24;34.80;30.30
29007;DHT22;16104;48.642;9.008;2023-06-22T15:44:22;34.60;31.50
29007;DHT22;16104;48.642;9.008;2023-06-22T15:49:17;34.40;31.40
29007;DHT22;16104;48.642;9.008;2023-06-22T15:54:13;34.20;31.50
29007;DHT22;16104;48.642;9.008;2023-06-22T15:59:08;34.00;32.00
29007;DHT22;16104;48.642;9.008;2023-06-22T16:04:04;33.90;32.20
29007;DHT22;16104;48.642;9.008;2023-06-22T16:08:59;33.70;32.10
29007;DHT22;16104;48.642;9.008;2023-06-22T16:13:55;33.50;32.70
29007;DHT22;16104;48.642;9.008;2023-06-22T16:18:50;33.30;32.70
29007;DHT22;16104;48.642;9.008;2023-06-22T16:23:46;33.20;32.80
29007;DHT22;16104;48.642;9.008;2023-06-22T16:28:41;33.00;33.10
29007;DHT22;16104;48.642;9.008;2023-06-22T16:33:37;32.80;33.40
29007;DHT22;16104;48.642;9.008;2023-06-22T16:38:32;32.80;33.30
29007;DHT22;16104;48.642;9.008;2023-06-22T16:43:28;32.70;33.50
29007;DHT22;16104;48.642;9.008;2023-06-22T16:48:24;32.60;33.40
29007;DHT22;16104;48.642;9.008;2023-06-22T16:53:19;32.50;33.60
29007;DHT22;16104;48.642;9.008;2023-06-22T16:58:17;32.50;33.80
29007;DHT22;16104;48.642;9.008;2023-06-22T17:08:21;32.30;33.20
29007;DHT22;16104;48.642;9.008;2023-06-22T17:13:16;32.10;33.70
29007;DHT22;16104;48.642;9.008;2023-06-22T17:18:13;31.90;33.50
29007;DHT22;16104;48.642;9.008;2023-06-22T17:23:10;31.70;33.70
29007;DHT22;16104;48.642;9.008;2023-06-22T17:28:05;31.50;33.60
29007;DHT22;16104;48.642;9.008;2023-06-22T17:33:01;31.30;33.70
29007;DHT22;16104;48.642;9.008;2023-06-22T17:37:58;31.00;33.90
29007;DHT22;16104;48.642;9.008;2023-06-22T17:43:05;30.90;34.30
29007;DHT22;16104;48.642;9.008;2023-06-22T17:48:01;30.70;34.60
29007;DHT22;16104;48.642;9.008;2023-06-22T17:52:57;30.50;35.30
29007;DHT22;16104;48.642;9.008;2023-06-22T17:57:56;30.20;35.00
29007;DHT22;16104;48.642;9.008;2023-06-22T18:02:52;29.90;35.70
29007;DHT22;16104;48.642;9.008;2023-06-22T18:07:50;29.60;36.20
29007;DHT22;16104;48.642;9.008;2023-06-22T18:12:47;29.30;36.80
29007;DHT22;16104;48.642;9.008;2023-06-22T18:17:43;29.00;37.40
29007;DHT22;16104;48.642;9.008;2023-06-22T18:22:40;28.80;38.80
29007;DHT22;16104;48.642;9.008;2023-06-22T18:27:36;28.60;40.30
29007;DHT22;16104;48.642;9.008;2023-06-22T18:32:32;28.30;40.80
29007;DHT22;16104;48.642;9.008;2023-06-22T18:37:30;28.10;41.50
29007;DHT22;16104;48.642;9.008;2023-06-22T18:42:28;27.90;42.60
29007;DHT22;16104;48.642;9.008;2023-06-22T18:47:29;27.70;43.10
29007;DHT22;16104;48.642;9.008;2023-06-22T18:52:25;27.50;43.40
29007;DHT22;16104;48.642;9.008;2023-06-22T18:57:26;27.20;43.60
29007;DHT22;16104;48.642;9.008;2023-06-22T19:02:35;27.00;44.30
29007;DHT22;16104;48.642;9.008;2023-06-22T19:12:48;26.60;46.10
29007;DHT22;16104;48.642;9.008;2023-06-22T19:17:49;26.40;45.20
29007;DHT22;16104;48.642;9.008;2023-06-22T19:22:54;26.20;46.20
29007;DHT22;16104;48.642;9.008;2023-06-22T19:27:51;26.00;46.80
29007;DHT22;16104;48.642;9.008;2023-06-22T19:32:48;25.80;47.40
29007;DHT22;16104;48.642;9.008;2023-06-22T19:37:45;25.70;47.70
29007;DHT22;16104;48.642;9.008;2023-06-22T19:42:43;25.50;48.40
29007;DHT22;16104;48.642;9.008;2023-06-22T19:47:38;25.40;48.90
29007;DHT22;16104;48.642;9.008;2023-06-22T19:52:35;25.20;48.90
29007;DHT22;16104;48.642;9.008;2023-06-22T19:57:35;25.00;49.50
29007;DHT22;16104;48.642;9.008;2023-06-22T20:02:31;24.90;50.40
29007;DHT22;16104;48.642;9.008;2023-06-22T20:07:36;24.80;50.50
29007;DHT22;16104;48.642;9.008;2023-06-22T20:12:32;24.70;51.60
29007;DHT22;16104;48.642;9.008;2023-06-22T20:17:28;24.60;51.10
29007;DHT22;16104;48.642;9.008;2023-06-22T20:22:23;24.60;51.10
29007;DHT22;16104;48.642;9.008;2023-06-22T20:27:19;24.50;51.20
29007;DHT22;16104;48.642;9.008;2023-06-22T20:32:14;24.40;51.80
29007;DHT22;16104;48.642;9.008;2023-06-22T20:37:11;24.40;51.60
29007;DHT22;16104;48.642;9.008;2023-06-22T20:42:07;24.30;52.00
29007;DHT22;16104;48.642;9.008;2023-06-22T20:47:03;24.20;52.20
29007;DHT22;16104;48.642;9.008;2023-06-22T20:51:58;24.20;52.40
29007;DHT22;16104;48.642;9.008;2023-06-22T20:57:01;24.10;52.50
29007;DHT22;16104;48.642;9.008;2023-06-22T21:01:56;24.10;52.80
29007;DHT22;16104;48.642;9.008;2023-06-22T21:06:52;24.00;52.90
29007;DHT22;16104;48.642;9.008;2023-06-22T21:11:48;23.90;53.20
29007;DHT22;16104;48.642;9.008;2023-06-22T21:16:43;23.90;53.20
29007;DHT22;16104;48.642;9.008;2023-06-22T21:21:39;23.80;53.40
29007;DHT22;16104;48.642;9.008;2023-06-22T21:26:34;23.80;53.20
29007;DHT22;16104;48.642;9.008;2023-06-22T21:31:30;23.80;53.50
29007;DHT22;16104;48.642;9.008;2023-06-22T21:36:26;23.70;53.40
29007;DHT22;16104;48.642;9.008;2023-06-22T21:41:22;23.70;53.70
29007;DHT22;16104;48.642;9.008;2023-06-22T21:46:17;23.60;53.90
29007;DHT22;16104;48.642;9.008;2023-06-22T21:51:13;23.60;54.00
29007;DHT22;16104;48.642;9.008;2023-06-22T21:56:08;23.50;54.30
29007;DHT22;16104;48.642;9.008;2023-06-22T22:01:04;23.50;54.50
29007;DHT22;16104;48.642;9.008;2023-06-22T22:05:59;23.40;54.50
29007;DHT22;16104;48.642;9.008;2023-06-22T22:10:55;23.30;54.70
29007;DHT22;16104;48.642;9.008;2023-06-22T22:15:50;23.30;54.80
29007;DHT22;16104;48.642;9.008;2023-06-22T22:20:46;23.20;54.90
29007;DHT22;16104;48.642;9.008;2023-06-22T22:25:42;23.10;54.80
29007;DHT22;16104;48.642;9.008;2023-06-22T22:30:37;23.00;54.90
29007;DHT22;16104;48.642;9.008;2023-06-22T22:35:33;23.00;54.90
29007;DHT22;16104;48.642;9.008;2023-06-22T22:40:28;22.90;55.10
29007;DHT22;16104;48.642;9.008;2023-06-22T22:45:25;22.80;55.30
29007;DHT22;16104;48.642;9.008;2023-06-22T22:50:20;22.80;55.50
29007;DHT22;16104;48.642;9.008;2023-06-22T22:55:17;22.80;55.50
29007;DHT22;16104;48.642;9.008;2023-06-22T23:00:13;22.70;55.80
29007;DHT22;16104;48.642;9.008;2023-06-22T23:05:09;22.70;55.60
29007;DHT22;16104;48.642;9.008;2023-06-22T23:10:06;22.70;55.80
29007;DHT22;16104;48.642;9.008;2023-06-22T23:15:02;22.70;55.90
29007;DHT22;16104;48.642;9.008;2023-06-22T23:19:58;22.70;56.00
29007;DHT22;16104;48.642;9.008;2023-06-22T23:24:53;22.70;56.30
29007;DHT22;16104;48.642;9.008;2023-06-22T23:29:48;22.60;56.50
29007;DHT22;16104;48.642;9.008;2023-06-22T23:34:45;22.60;56.60
29007;DHT22;16104;48.642;9.008;2023-06-22T23:39:41;22.60;57.10
29007;DHT22;16104;48.642;9.008;2023-06-22T23:44:38;22.60;57.20
29007;DHT22;16104;48.642;9.008;2023-06-22T23:49:34;22.60;57.60
29007;DHT22;16104;48.642;9.008;2023-06-22T23:54:29;22.60;58.20
29007;DHT22;16104;48.642;9.008;2023-06-22T23:59:25;22.50;58.70
